sensor_id;sensor_type;location;lat;lon;timestamp;temperature;humidity
27697;DHT22;15105;56.514;21.002;2022-08-03T00:01:40;17.20;99.90
27697;DHT22;15105;56.514;21.002;2022-08-03T00:04:08;17.20;99.90
27697;DHT22;15105;56.514;21.002;2022-08-03T00:06:36;17.20;99.90
27697;DHT22;15105;56.514;21.002;2022-08-03T00:09:04;17.20;99.90
27697;DHT22;15105;56.514;21.002;2022-08-03T00:11:32;17.20;99.90
27697;DHT22;15105;56.514;21.002;2022-08-03T00:13:59;17.20;99.90
27697;DHT22;15105;56.514;21.002;2022-08-03T00:16:26;17.20;99.90
27697;DHT22;15105;56.514;21.002;2022-08-03T00:18:53;17.20;99.90
27697;DHT22;15105;56.514;21.002;2022-08-03T00:21:21;17.20;99.90
27697;DHT22;15105;56.514;21.002;2022-08-03T00:23:48;17.20;99.90
27697;DHT22;15105;56.514;21.002;2022-08-03T00:26:19;17.20;99.90
27697;DHT22;15105;56.514;21.002;2022-08-03T00:28:46;17.20;99.90
27697;DHT22;15105;56.514;21.002;2022-08-03T00:31:13;17.20;99.90
27697;DHT22;15105;56.514;21.002;2022-08-03T00:33:40;17.10;99.90
27697;DHT22;15105;56.514;21.002;2022-08-03T00:36:26;17.20;99.90
27697;DHT22;15105;56.514;21.002;2022-08-03T00:38:53;17.00;99.90
27697;DHT22;15105;56.514;21.002;2022-08-03T00:41:21;16.90;99.90
27697;DHT22;15105;56.514;21.002;2022-08-03T00:43:48;16.80;99.90
27697;DHT22;15105;56.514;21.002;2022-08-03T00:46:15;16.60;99.90
27697;DHT22;15105;56.514;21.002;2022-08-03T00:48:48;16.50;99.90
27697;DHT22;15105;56.514;21.002;2022-08-03T00:51:22;16.40;99.90
27697;DHT22;15105;56.514;21.002;2022-08-03T00:53:50;16.30;99.90
27697;DHT22;15105;56.514;21.002;2022-08-03T00:56:17;16.20;99.90
27697;DHT22;15105;56.514;21.002;2022-08-03T00:58:45;16.10;99.90
27697;DHT22;15105;56.514;21.002;2022-08-03T01:01:13;16.10;99.90
27697;DHT22;15105;56.514;21.002;2022-08-03T01:03:43;16.00;99.90
27697;DHT22;15105;56.514;21.002;2022-08-03T01:06:15;16.00;99.90
27697;DHT22;15105;56.514;21.002;2022-08-03T01:09:22;15.90;99.90
27697;DHT22;15105;56.514;21.002;2022-08-03T01:12:09;15.90;99.90
27697;DHT22;15105;56.514;21.002;2022-08-03T01:14:45;15.90;99.90
27697;DHT22;15105;56.514;21.002;2022-08-03T01:17:28;15.80;99.90
27697;DHT22;15105;56.514;21.002;2022-08-03T01:20:06;15.80;99.90
27697;DHT22;15105;56.514;21.002;2022-08-03T01:23:14;15.90;99.90
27697;DHT22;15105;56.514;21.002;2022-08-03T01:30:55;15.90;99.90
27697;DHT22;15105;56.514;21.002;2022-08-03T01:33:29;15.90;99.90
27697;DHT22;15105;56.514;21.002;2022-08-03T01:36:06;16.00;99.90
27697;DHT22;15105;56.514;21.002;2022-08-03T01:38:40;16.20;99.90
27697;DHT22;15105;56.514;21.002;2022-08-03T01:41:14;16.40;99.90
27697;DHT22;15105;56.514;21.002;2022-08-03T01:43:44;16.60;99.90
27697;DHT22;15105;56.514;21.002;2022-08-03T01:46:36;16.80;99.90
27697;DHT22;15105;56.514;21.002;2022-08-03T01:49:08;17.00;99.90
27697;DHT22;15105;56.514;21.002;2022-08-03T01:51:41;17.20;99.90
27697;DHT22;15105;56.514;21.002;2022-08-03T01:54:31;17.30;99.90
27697;DHT22;15105;56.514;21.002;2022-08-03T01:57:02;17.40;99.90
27697;DHT22;15105;56.514;21.002;2022-08-03T01:59:29;17.40;99.90
27697;DHT22;15105;56.514;21.002;2022-08-03T02:01:59;17.50;99.90
27697;DHT22;15105;56.514;21.002;2022-08-03T02:04:47;17.50;99.90
27697;DHT22;15105;56.514;21.002;2022-08-03T02:07:16;17.50;99.90
27697;DHT22;15105;56.514;21.002;2022-08-03T02:09:49;17.60;99.90
27697;DHT22;15105;56.514;21.002;2022-08-03T02:12:17;17.60;99.90
27697;DHT22;15105;56.514;21.002;2022-08-03T02:14:46;17.60;99.90
27697;DHT22;15105;56.514;21.002;2022-08-03T02:17:15;17.60;99.90
27697;DHT22;15105;56.514;21.002;2022-08-03T02:19:43;17.60;99.90
27697;DHT22;15105;56.514;21.002;2022-08-03T02:22:12;17.70;99.90
27697;DHT22;15105;56.514;21.002;2022-08-03T02:24:40;17.60;99.90
27697;DHT22;15105;56.514;21.002;2022-08-03T02:27:20;17.70;99.90
27697;DHT22;15105;56.514;21.002;2022-08-03T02:29:52;17.70;99.90
27697;DHT22;15105;56.514;21.002;2022-08-03T02:32:25;17.70;99.90
27697;DHT22;15105;56.514;21.002;2022-08-03T02:34:55;17.70;99.90
27697;DHT22;15105;56.514;21.002;2022-08-03T02:37:27;17.70;99.90
27697;DHT22;15105;56.514;21.002;2022-08-03T02:40:03;17.80;99.90
27697;DHT22;15105;56.514;21.002;2022-08-03T02:42:32;17.80;99.90
27697;DHT22;15105;56.514;21.002;2022-08-03T02:45:03;17.80;99.90
27697;DHT22;15105;56.514;21.002;2022-08-03T02:47:32;17.80;99.90
27697;DHT22;15105;56.514;21.002;2022-08-03T02:50:21;17.80;99.90
27697;DHT22;15105;56.514;21.002;2022-08-03T02:52:50;17.80;99.90
27697;DHT22;15105;56.514;21.002;2022-08-03T02:55:20;17.80;99.90
27697;DHT22;15105;56.514;21.002;2022-08-03T02:57:49;17.90;99.90
27697;DHT22;15105;56.514;21.002;2022-08-03T03:00:17;17.90;99.90
27697;DHT22;15105;56.514;21.002;2022-08-03T03:02:58;17.90;99.90
27697;DHT22;15105;56.514;21.002;2022-08-03T03:05:27;17.90;99.90
27697;DHT22;15105;56.514;21.002;2022-08-03T03:08:17;17.90;99.90
27697;DHT22;15105;56.514;21.002;2022-08-03T03:10:54;17.90;99.90
27697;DHT22;15105;56.514;21.002;2022-08-03T03:13:22;18.00;99.90
27697;DHT22;15105;56.514;21.002;2022-08-03T03:15:50;18.00;99.90
27697;DHT22;15105;56.514;21.002;2022-08-03T03:18:18;18.00;99.90
27697;DHT22;15105;56.514;21.002;2022-08-03T03:20:50;18.00;99.90
27697;DHT22;15105;56.514;21.002;2022-08-03T03:23:20;18.00;99.90
27697;DHT22;15105;56.514;21.002;2022-08-03T03:25:48;18.10;99.90
27697;DHT22;15105;56.514;21.002;2022-08-03T03:28:16;18.00;99.90
27697;DHT22;15105;56.514;21.002;2022-08-03T03:30:43;18.10;99.90
27697;DHT22;15105;56.514;21.002;2022-08-03T03:33:18;18.10;99.90
27697;DHT22;15105;56.514;21.002;2022-08-03T03:35:46;18.10;99.90
27697;DHT22;15105;56.514;21.002;2022-08-03T03:38:13;18.10;99.90
27697;DHT22;15105;56.514;21.002;2022-08-03T03:40:41;18.10;99.90
27697;DHT22;15105;56.514;21.002;2022-08-03T03:43:11;18.10;99.90
27697;DHT22;15105;56.514;21.002;2022-08-03T03:45:42;18.20;99.90
27697;DHT22;15105;56.514;21.002;2022-08-03T03:48:10;18.20;99.90
27697;DHT22;15105;56.514;21.002;2022-08-03T03:50:37;18.20;99.90
27697;DHT22;15105;56.514;21.002;2022-08-03T03:53:11;18.30;99.90
27697;DHT22;15105;56.514;21.002;2022-08-03T03:55:39;18.30;99.90
27697;DHT22;15105;56.514;21.002;2022-08-03T03:58:26;18.30;99.90
27697;DHT22;15105;56.514;21.002;2022-08-03T04:00:54;18.30;99.90
27697;DHT22;15105;56.514;21.002;2022-08-03T04:03:21;18.30;99.90
27697;DHT22;15105;56.514;21.002;2022-08-03T04:05:49;18.40;99.90
27697;DHT22;15105;56.514;21.002;2022-08-03T04:08:34;18.40;99.90
27697;DHT22;15105;56.514;21.002;2022-08-03T04:11:29;18.40;99.90
27697;DHT22;15105;56.514;21.002;2022-08-03T04:16:50;18.50;99.90
27697;DHT22;15105;56.514;21.002;2022-08-03T04:19:44;18.60;99.90
27697;DHT22;15105;56.514;21.002;2022-08-03T04:22:20;18.60;99.90
27697;DHT22;15105;56.514;21.002;2022-08-03T04:24:56;18.70;99.90
27697;DHT22;15105;56.514;21.002;2022-08-03T04:27:26;18.70;99.90
27697;DHT22;15105;56.514;21.002;2022-08-03T04:29:56;18.80;99.90
27697;DHT22;15105;56.514;21.002;2022-08-03T04:32:24;18.80;99.90
27697;DHT22;15105;56.514;21.002;2022-08-03T04:34:54;18.90;99.90
27697;DHT22;15105;56.514;21.002;2022-08-03T04:37:38;18.90;99.90
27697;DHT22;15105;56.514;21.002;2022-08-03T04:40:09;19.00;99.90
27697;DHT22;15105;56.514;21.002;2022-08-03T04:42:39;19.10;99.90
27697;DHT22;15105;56.514;21.002;2022-08-03T04:45:11;19.30;99.90
27697;DHT22;15105;56.514;21.002;2022-08-03T04:47:39;19.50;99.90
27697;DHT22;15105;56.514;21.002;2022-08-03T04:50:07;20.40;99.90
27697;DHT22;15105;56.514;21.002;2022-08-03T04:52:39;20.80;99.90
27697;DHT22;15105;56.514;21.002;2022-08-03T04:55:07;20.90;99.90
27697;DHT22;15105;56.514;21.002;2022-08-03T04:57:34;21.40;99.90
27697;DHT22;15105;56.514;21.002;2022-08-03T05:00:03;22.40;99.90
27697;DHT22;15105;56.514;21.002;2022-08-03T05:02:31;22.20;99.90
27697;DHT22;15105;56.514;21.002;2022-08-03T05:04:59;21.60;99.90
27697;DHT22;15105;56.514;21.002;2022-08-03T05:07:26;21.10;99.90
27697;DHT22;15105;56.514;21.002;2022-08-03T05:10:07;20.80;99.90
27697;DHT22;15105;56.514;21.002;2022-08-03T05:12:42;20.50;99.90
27697;DHT22;15105;56.514;21.002;2022-08-03T05:15:10;20.20;99.90
27697;DHT22;15105;56.514;21.002;2022-08-03T05:17:37;20.10;99.90
27697;DHT22;15105;56.514;21.002;2022-08-03T05:20:05;20.00;99.90
27697;DHT22;15105;56.514;21.002;2022-08-03T05:22:32;20.00;99.90
27697;DHT22;15105;56.514;21.002;2022-08-03T05:25:00;20.00;99.90
27697;DHT22;15105;56.514;21.002;2022-08-03T05:27:27;20.00;99.90
27697;DHT22;15105;56.514;21.002;2022-08-03T05:29:54;20.00;99.90
27697;DHT22;15105;56.514;21.002;2022-08-03T05:32:41;20.10;99.90
27697;DHT22;15105;56.514;21.002;2022-08-03T05:35:08;20.20;99.90
27697;DHT22;15105;56.514;21.002;2022-08-03T05:37:55;20.30;99.90
27697;DHT22;15105;56.514;21.002;2022-08-03T05:40:23;20.40;99.90
27697;DHT22;15105;56.514;21.002;2022-08-03T05:42:52;20.40;99.90
27697;DHT22;15105;56.514;21.002;2022-08-03T05:45:19;20.50;99.90
27697;DHT22;15105;56.514;21.002;2022-08-03T05:47:52;20.60;99.90
27697;DHT22;15105;56.514;21.002;2022-08-03T05:50:19;20.70;99.90
27697;DHT22;15105;56.514;21.002;2022-08-03T05:52:47;20.70;99.90
27697;DHT22;15105;56.514;21.002;2022-08-03T05:55:14;20.80;99.90
27697;DHT22;15105;56.514;21.002;2022-08-03T05:57:41;20.80;99.90
27697;DHT22;15105;56.514;21.002;2022-08-03T06:00:10;20.80;99.90
27697;DHT22;15105;56.514;21.002;2022-08-03T06:02:41;20.80;99.90
27697;DHT22;15105;56.514;21.002;2022-08-03T06:05:09;20.80;99.90
27697;DHT22;15105;56.514;21.002;2022-08-03T06:07:36;20.70;99.90
27697;DHT22;15105;56.514;21.002;2022-08-03T06:10:04;20.70;99.90
27697;DHT22;15105;56.514;21.002;2022-08-03T06:12:52;20.60;99.90
27697;DHT22;15105;56.514;21.002;2022-08-03T06:15:19;20.40;99.90
27697;DHT22;15105;56.514;21.002;2022-08-03T06:17:48;20.40;99.90
27697;DHT22;15105;56.514;21.002;2022-08-03T06:20:20;20.40;99.90
27697;DHT22;15105;56.514;21.002;2022-08-03T06:22:53;20.40;99.90
27697;DHT22;15105;56.514;21.002;2022-08-03T06:25:26;20.40;99.90
27697;DHT22;15105;56.514;21.002;2022-08-03T06:27:54;20.40;99.90
27697;DHT22;15105;56.514;21.002;2022-08-03T06:30:25;20.50;99.90
27697;DHT22;15105;56.514;21.002;2022-08-03T06:32:54;20.50;99.90
27697;DHT22;15105;56.514;21.002;2022-08-03T06:35:21;20.40;99.90
27697;DHT22;15105;56.514;21.002;2022-08-03T06:37:50;20.30;99.90
27697;DHT22;15105;56.514;21.002;2022-08-03T06:40:19;20.20;99.90
27697;DHT22;15105;56.514;21.002;2022-08-03T06:42:50;20.10;99.90
27697;DHT22;15105;56.514;21.002;2022-08-03T06:45:17;20.10;99.90
27697;DHT22;15105;56.514;21.002;2022-08-03T06:47:44;20.10;99.90
27697;DHT22;15105;56.514;21.002;2022-08-03T06:50:11;20.20;99.90
27697;DHT22;15105;56.514;21.002;2022-08-03T06:52:44;20.20;99.90
27697;DHT22;15105;56.514;21.002;2022-08-03T06:55:11;20.30;99.90
27697;DHT22;15105;56.514;21.002;2022-08-03T06:57:38;20.30;99.90
27697;DHT22;15105;56.514;21.002;2022-08-03T07:00:05;20.40;99.90
27697;DHT22;15105;56.514;21.002;2022-08-03T07:02:38;20.40;99.90
27697;DHT22;15105;56.514;21.002;2022-08-03T07:05:07;20.50;99.90
27697;DHT22;15105;56.514;21.002;2022-08-03T07:07:34;20.50;99.90
27697;DHT22;15105;56.514;21.002;2022-08-03T07:10:03;20.50;99.90
27697;DHT22;15105;56.514;21.002;2022-08-03T07:12:31;20.50;99.90
27697;DHT22;15105;56.514;21.002;2022-08-03T07:15:00;20.50;99.90
27697;DHT22;15105;56.514;21.002;2022-08-03T07:17:30;20.40;99.90
27697;DHT22;15105;56.514;21.002;2022-08-03T07:19:58;20.30;99.90
27697;DHT22;15105;56.514;21.002;2022-08-03T07:22:26;20.30;99.90
27697;DHT22;15105;56.514;21.002;2022-08-03T07:24:53;20.30;99.90
27697;DHT22;15105;56.514;21.002;2022-08-03T07:27:20;20.20;99.90
27697;DHT22;15105;56.514;21.002;2022-08-03T07:29:48;20.20;99.90
27697;DHT22;15105;56.514;21.002;2022-08-03T07:32:19;20.40;99.90
27697;DHT22;15105;56.514;21.002;2022-08-03T07:34:46;20.50;99.90
27697;DHT22;15105;56.514;21.002;2022-08-03T07:37:13;20.60;99.90
27697;DHT22;15105;56.514;21.002;2022-08-03T07:39:43;20.70;99.90
27697;DHT22;15105;56.514;21.002;2022-08-03T07:42:10;20.90;99.90
27697;DHT22;15105;56.514;21.002;2022-08-03T07:44:37;20.80;99.90
27697;DHT22;15105;56.514;21.002;2022-08-03T07:47:05;20.90;99.90
27697;DHT22;15105;56.514;21.002;2022-08-03T07:49:38;21.00;99.90
27697;DHT22;15105;56.514;21.002;2022-08-03T07:52:06;21.30;99.90
27697;DHT22;15105;56.514;21.002;2022-08-03T07:54:54;21.50;99.90
27697;DHT22;15105;56.514;21.002;2022-08-03T07:57:21;21.70;99.90
27697;DHT22;15105;56.514;21.002;2022-08-03T07:59:48;21.80;99.90
27697;DHT22;15105;56.514;21.002;2022-08-03T08:02:28;21.90;99.90
27697;DHT22;15105;56.514;21.002;2022-08-03T08:04:55;22.30;99.90
27697;DHT22;15105;56.514;21.002;2022-08-03T08:07:22;22.50;99.90
27697;DHT22;15105;56.514;21.002;2022-08-03T08:09:49;22.70;99.90
27697;DHT22;15105;56.514;21.002;2022-08-03T08:12:16;22.90;99.90
27697;DHT22;15105;56.514;21.002;2022-08-03T08:14:44;23.20;99.90
27697;DHT22;15105;56.514;21.002;2022-08-03T08:17:13;23.30;99.90
27697;DHT22;15105;56.514;21.002;2022-08-03T08:19:40;23.20;99.90
27697;DHT22;15105;56.514;21.002;2022-08-03T08:22:17;23.30;99.90
27697;DHT22;15105;56.514;21.002;2022-08-03T08:24:57;23.30;99.90
27697;DHT22;15105;56.514;21.002;2022-08-03T08:27:24;23.40;99.90
27697;DHT22;15105;56.514;21.002;2022-08-03T08:29:51;23.60;99.90
27697;DHT22;15105;56.514;21.002;2022-08-03T08:32:24;23.70;99.90
27697;DHT22;15105;56.514;21.002;2022-08-03T08:34:51;24.00;99.90
27697;DHT22;15105;56.514;21.002;2022-08-03T08:37:19;24.10;99.90
27697;DHT22;15105;56.514;21.002;2022-08-03T08:39:45;24.00;99.90
27697;DHT22;15105;56.514;21.002;2022-08-03T08:42:14;24.00;99.90
27697;DHT22;15105;56.514;21.002;2022-08-03T08:44:41;23.80;99.90
27697;DHT22;15105;56.514;21.002;2022-08-03T08:47:09;23.50;99.90
27697;DHT22;15105;56.514;21.002;2022-08-03T08:49:38;23.20;99.90
27697;DHT22;15105;56.514;21.002;2022-08-03T08:52:27;23.00;99.90
27697;DHT22;15105;56.514;21.002;2022-08-03T08:55:00;23.00;99.90
27697;DHT22;15105;56.514;21.002;2022-08-03T08:57:33;23.10;99.90
27697;DHT22;15105;56.514;21.002;2022-08-03T09:00:10;23.10;99.90
27697;DHT22;15105;56.514;21.002;2022-08-03T09:02:42;22.90;99.90
27697;DHT22;15105;56.514;21.002;2022-08-03T09:05:30;22.80;99.90
27697;DHT22;15105;56.514;21.002;2022-08-03T09:08:19;22.90;99.90
27697;DHT22;15105;56.514;21.002;2022-08-03T09:10:46;23.00;99.90
27697;DHT22;15105;56.514;21.002;2022-08-03T09:13:13;23.00;99.90
27697;DHT22;15105;56.514;21.002;2022-08-03T09:15:41;22.90;99.90
27697;DHT22;15105;56.514;21.002;2022-08-03T09:18:28;23.10;99.90
27697;DHT22;15105;56.514;21.002;2022-08-03T09:21:26;23.00;99.90
27697;DHT22;15105;56.514;21.002;2022-08-03T09:24:00;22.90;99.90
27697;DHT22;15105;56.514;21.002;2022-08-03T09:26:32;23.20;99.90
27697;DHT22;15105;56.514;21.002;2022-08-03T09:31:42;23.30;99.90
27697;DHT22;15105;56.514;21.002;2022-08-03T09:34:13;23.60;99.90
27697;DHT22;15105;56.514;21.002;2022-08-03T09:37:00;23.80;99.90
27697;DHT22;15105;56.514;21.002;2022-08-03T09:39:27;23.80;99.90
27697;DHT22;15105;56.514;21.002;2022-08-03T09:42:14;23.90;99.90
27697;DHT22;15105;56.514;21.002;2022-08-03T09:44:46;24.00;99.90
27697;DHT22;15105;56.514;21.002;2022-08-03T09:47:29;24.00;99.90
27697;DHT22;15105;56.514;21.002;2022-08-03T09:50:07;23.90;99.90
27697;DHT22;15105;56.514;21.002;2022-08-03T09:52:37;24.00;99.90
27697;DHT22;15105;56.514;21.002;2022-08-03T09:55:18;24.00;99.90
27697;DHT22;15105;56.514;21.002;2022-08-03T09:58:10;23.90;99.90
27697;DHT22;15105;56.514;21.002;2022-08-03T10:01:00;24.10;99.90
27697;DHT22;15105;56.514;21.002;2022-08-03T10:03:32;24.30;99.90
27697;DHT22;15105;56.514;21.002;2022-08-03T10:06:19;24.30;99.90
27697;DHT22;15105;56.514;21.002;2022-08-03T10:09:05;24.20;99.90
27697;DHT22;15105;56.514;21.002;2022-08-03T10:11:34;24.10;99.90
27697;DHT22;15105;56.514;21.002;2022-08-03T10:14:09;24.00;99.90
27697;DHT22;15105;56.514;21.002;2022-08-03T10:16:38;24.00;99.90
27697;DHT22;15105;56.514;21.002;2022-08-03T10:19:07;24.00;99.90
27697;DHT22;15105;56.514;21.002;2022-08-03T10:21:37;24.00;99.90
27697;DHT22;15105;56.514;21.002;2022-08-03T10:24:06;24.10;99.90
27697;DHT22;15105;56.514;21.002;2022-08-03T10:26:35;24.30;99.90
27697;DHT22;15105;56.514;21.002;2022-08-03T10:29:10;24.30;99.90
27697;DHT22;15105;56.514;21.002;2022-08-03T10:31:39;24.20;99.90
27697;DHT22;15105;56.514;21.002;2022-08-03T10:34:26;24.30;99.90
27697;DHT22;15105;56.514;21.002;2022-08-03T10:36:57;24.30;99.90
27697;DHT22;15105;56.514;21.002;2022-08-03T10:39:29;24.40;99.90
27697;DHT22;15105;56.514;21.002;2022-08-03T10:41:57;24.30;99.90
27697;DHT22;15105;56.514;21.002;2022-08-03T10:44:32;24.30;99.90
27697;DHT22;15105;56.514;21.002;2022-08-03T10:47:03;24.30;99.90
27697;DHT22;15105;56.514;21.002;2022-08-03T10:49:31;24.40;99.90
27697;DHT22;15105;56.514;21.002;2022-08-03T10:52:02;24.40;99.90
27697;DHT22;15105;56.514;21.002;2022-08-03T10:54:50;24.40;99.90
27697;DHT22;15105;56.514;21.002;2022-08-03T10:57:52;24.30;99.90
27697;DHT22;15105;56.514;21.002;2022-08-03T11:00:26;24.20;99.90
27697;DHT22;15105;56.514;21.002;2022-08-03T11:05:35;24.30;99.90
27697;DHT22;15105;56.514;21.002;2022-08-03T11:08:31;24.20;99.90
27697;DHT22;15105;56.514;21.002;2022-08-03T11:11:23;24.20;99.90
27697;DHT22;15105;56.514;21.002;2022-08-03T11:14:09;24.30;99.90
27697;DHT22;15105;56.514;21.002;2022-08-03T11:16:45;24.50;99.90
27697;DHT22;15105;56.514;21.002;2022-08-03T11:19:19;24.50;99.90
27697;DHT22;15105;56.514;21.002;2022-08-03T11:21:54;24.40;99.90
27697;DHT22;15105;56.514;21.002;2022-08-03T11:27:29;24.40;99.90
27697;DHT22;15105;56.514;21.002;2022-08-03T11:35:18;24.60;99.90
27697;DHT22;15105;56.514;21.002;2022-08-03T11:40:48;24.60;99.90
27697;DHT22;15105;56.514;21.002;2022-08-03T11:46:01;24.50;99.90
27697;DHT22;15105;56.514;21.002;2022-08-03T11:51:25;24.30;99.90
27697;DHT22;15105;56.514;21.002;2022-08-03T11:54:01;24.20;99.90
27697;DHT22;15105;56.514;21.002;2022-08-03T11:56:46;24.20;99.90
27697;DHT22;15105;56.514;21.002;2022-08-03T11:59:14;24.20;99.90
27697;DHT22;15105;56.514;21.002;2022-08-03T12:01:48;24.40;99.90
27697;DHT22;15105;56.514;21.002;2022-08-03T12:04:18;24.50;99.90
27697;DHT22;15105;56.514;21.002;2022-08-03T12:07:05;24.60;99.90
27697;DHT22;15105;56.514;21.002;2022-08-03T12:09:32;24.60;99.90
27697;DHT22;15105;56.514;21.002;2022-08-03T12:12:02;24.70;99.90
27697;DHT22;15105;56.514;21.002;2022-08-03T12:14:29;24.60;99.90
27697;DHT22;15105;56.514;21.002;2022-08-03T12:17:19;24.60;99.90
27697;DHT22;15105;56.514;21.002;2022-08-03T12:19:47;24.50;99.90
27697;DHT22;15105;56.514;21.002;2022-08-03T12:22:14;24.40;99.90
27697;DHT22;15105;56.514;21.002;2022-08-03T12:24:43;24.40;99.90
27697;DHT22;15105;56.514;21.002;2022-08-03T12:27:22;24.40;99.90
27697;DHT22;15105;56.514;21.002;2022-08-03T12:29:53;24.20;99.90
27697;DHT22;15105;56.514;21.002;2022-08-03T12:32:24;24.10;99.90
27697;DHT22;15105;56.514;21.002;2022-08-03T12:34:52;24.10;99.90
27697;DHT22;15105;56.514;21.002;2022-08-03T12:37:20;24.10;99.90
27697;DHT22;15105;56.514;21.002;2022-08-03T12:39:54;24.00;99.90
27697;DHT22;15105;56.514;21.002;2022-08-03T12:42:36;24.00;99.90
27697;DHT22;15105;56.514;21.002;2022-08-03T12:47:59;23.90;99.90
27697;DHT22;15105;56.514;21.002;2022-08-03T12:50:30;23.90;99.90
27697;DHT22;15105;56.514;21.002;2022-08-03T12:52:59;23.90;99.90
27697;DHT22;15105;56.514;21.002;2022-08-03T12:55:27;24.00;99.90
27697;DHT22;15105;56.514;21.002;2022-08-03T12:58:30;23.90;99.90
27697;DHT22;15105;56.514;21.002;2022-08-03T13:01:04;23.80;99.90
27697;DHT22;15105;56.514;21.002;2022-08-03T13:03:43;23.60;99.90
27697;DHT22;15105;56.514;21.002;2022-08-03T13:06:24;23.50;99.90
27697;DHT22;15105;56.514;21.002;2022-08-03T13:09:02;23.50;99.90
27697;DHT22;15105;56.514;21.002;2022-08-03T13:11:31;23.40;99.90
27697;DHT22;15105;56.514;21.002;2022-08-03T13:14:19;23.40;99.90
27697;DHT22;15105;56.514;21.002;2022-08-03T13:16:47;23.50;99.90
27697;DHT22;15105;56.514;21.002;2022-08-03T13:19:18;23.50;99.90
27697;DHT22;15105;56.514;21.002;2022-08-03T13:21:45;23.40;99.90
27697;DHT22;15105;56.514;21.002;2022-08-03T13:24:29;23.40;99.90
27697;DHT22;15105;56.514;21.002;2022-08-03T13:26:58;23.40;99.90
27697;DHT22;15105;56.514;21.002;2022-08-03T13:29:25;23.50;99.90
27697;DHT22;15105;56.514;21.002;2022-08-03T13:31:52;23.50;99.90
27697;DHT22;15105;56.514;21.002;2022-08-03T13:34:19;23.50;99.90
27697;DHT22;15105;56.514;21.002;2022-08-03T13:36:53;23.40;99.90
27697;DHT22;15105;56.514;21.002;2022-08-03T13:39:39;23.30;99.90
27697;DHT22;15105;56.514;21.002;2022-08-03T13:42:27;23.20;99.90
27697;DHT22;15105;56.514;21.002;2022-08-03T13:44:55;23.20;99.90
27697;DHT22;15105;56.514;21.002;2022-08-03T13:47:22;23.20;99.90
27697;DHT22;15105;56.514;21.002;2022-08-03T13:49:49;23.10;99.90
27697;DHT22;15105;56.514;21.002;2022-08-03T13:52:29;23.10;99.90
27697;DHT22;15105;56.514;21.002;2022-08-03T13:54:56;23.00;99.90
27697;DHT22;15105;56.514;21.002;2022-08-03T13:57:24;23.10;99.90
27697;DHT22;15105;56.514;21.002;2022-08-03T14:00:12;23.10;99.90
27697;DHT22;15105;56.514;21.002;2022-08-03T14:02:52;23.10;99.90
27697;DHT22;15105;56.514;21.002;2022-08-03T14:05:27;23.10;99.90
27697;DHT22;15105;56.514;21.002;2022-08-03T14:07:57;23.10;99.90
27697;DHT22;15105;56.514;21.002;2022-08-03T14:10:38;23.10;99.90
27697;DHT22;15105;56.514;21.002;2022-08-03T14:13:06;23.00;99.90
27697;DHT22;15105;56.514;21.002;2022-08-03T14:15:34;23.00;99.90
27697;DHT22;15105;56.514;21.002;2022-08-03T14:18:07;22.90;99.90
27697;DHT22;15105;56.514;21.002;2022-08-03T14:20:41;22.90;99.90
27697;DHT22;15105;56.514;21.002;2022-08-03T14:23:16;23.00;99.90
27697;DHT22;15105;56.514;21.002;2022-08-03T14:25:43;23.00;99.90
27697;DHT22;15105;56.514;21.002;2022-08-03T14:28:20;23.10;99.90
27697;DHT22;15105;56.514;21.002;2022-08-03T14:30:50;23.00;99.90
27697;DHT22;15105;56.514;21.002;2022-08-03T14:33:18;23.00;99.90
27697;DHT22;15105;56.514;21.002;2022-08-03T14:35:45;23.00;99.90
27697;DHT22;15105;56.514;21.002;2022-08-03T14:38:12;22.90;99.90
27697;DHT22;15105;56.514;21.002;2022-08-03T14:40:43;22.80;99.90
27697;DHT22;15105;56.514;21.002;2022-08-03T14:43:11;22.80;99.90
27697;DHT22;15105;56.514;21.002;2022-08-03T14:45:38;22.80;99.90
27697;DHT22;15105;56.514;21.002;2022-08-03T14:48:06;22.70;99.90
27697;DHT22;15105;56.514;21.002;2022-08-03T14:50:53;22.70;99.90
27697;DHT22;15105;56.514;21.002;2022-08-03T14:53:21;22.60;99.90
27697;DHT22;15105;56.514;21.002;2022-08-03T14:55:48;22.60;99.90
27697;DHT22;15105;56.514;21.002;2022-08-03T14:58:22;22.60;99.90
27697;DHT22;15105;56.514;21.002;2022-08-03T15:00:51;22.60;99.90
27697;DHT22;15105;56.514;21.002;2022-08-03T15:03:19;22.60;99.90
27697;DHT22;15105;56.514;21.002;2022-08-03T15:05:54;22.60;99.90
27697;DHT22;15105;56.514;21.002;2022-08-03T15:08:22;22.60;99.90
27697;DHT22;15105;56.514;21.002;2022-08-03T15:10:51;22.60;99.90
27697;DHT22;15105;56.514;21.002;2022-08-03T15:13:18;22.50;99.90
27697;DHT22;15105;56.514;21.002;2022-08-03T15:15:46;22.60;99.90
27697;DHT22;15105;56.514;21.002;2022-08-03T15:18:14;22.50;99.90
27697;DHT22;15105;56.514;21.002;2022-08-03T15:20:41;22.40;99.90
27697;DHT22;15105;56.514;21.002;2022-08-03T15:23:13;22.30;99.90
27697;DHT22;15105;56.514;21.002;2022-08-03T15:25:41;22.30;99.90
27697;DHT22;15105;56.514;21.002;2022-08-03T15:28:28;22.20;99.90
27697;DHT22;15105;56.514;21.002;2022-08-03T15:30:55;22.10;99.90
27697;DHT22;15105;56.514;21.002;2022-08-03T15:33:23;22.10;99.90
27697;DHT22;15105;56.514;21.002;2022-08-03T15:35:50;22.10;99.90
27697;DHT22;15105;56.514;21.002;2022-08-03T15:38:17;22.00;99.90
27697;DHT22;15105;56.514;21.002;2022-08-03T15:40:44;22.00;99.90
27697;DHT22;15105;56.514;21.002;2022-08-03T15:43:12;22.10;99.90
27697;DHT22;15105;56.514;21.002;2022-08-03T15:45:39;22.10;99.90
27697;DHT22;15105;56.514;21.002;2022-08-03T15:48:07;22.10;99.90
27697;DHT22;15105;56.514;21.002;2022-08-03T15:50:34;22.10;99.90
27697;DHT22;15105;56.514;21.002;2022-08-03T15:53:02;22.10;99.90
27697;DHT22;15105;56.514;21.002;2022-08-03T15:55:30;22.00;99.90
27697;DHT22;15105;56.514;21.002;2022-08-03T15:57:57;21.90;99.90
27697;DHT22;15105;56.514;21.002;2022-08-03T16:00:44;21.90;99.90
27697;DHT22;15105;56.514;21.002;2022-08-03T16:03:11;21.90;99.90
27697;DHT22;15105;56.514;21.002;2022-08-03T16:05:38;21.90;99.90
27697;DHT22;15105;56.514;21.002;2022-08-03T16:08:05;21.80;99.90
27697;DHT22;15105;56.514;21.002;2022-08-03T16:10:39;21.80;99.90
27697;DHT22;15105;56.514;21.002;2022-08-03T16:13:07;21.80;99.90
27697;DHT22;15105;56.514;21.002;2022-08-03T16:15:34;21.80;99.90
27697;DHT22;15105;56.514;21.002;2022-08-03T16:18:05;21.70;99.90
27697;DHT22;15105;56.514;21.002;2022-08-03T16:20:32;21.70;99.90